Pagrindinis puslapis
METAR-TAF:

METAR-TAF

Oro uostai :

Sainte-Marie, Madagaskaras

platuma: 17-05S, ilguma: 049-49E, Aukštis: 2 m

Dabartinis oras

Ataskaita buvo paskelbta 7 valandos ir 35 minutes, ne 15:00 UTC
Vėjas 14 kt iš Pietų/Pietvakarių
Temperatūra 26°C
Drėgmė 84%
Slėgis 1016 hPa
Matomumas 10 km arba daugiau
Išsisklaidę debesys ne aukštis 1700 ft
Išsisklaidę debesys ne aukštis 4000 ft
Su prošvaistėmis ne aukštis 25000 ft

METAR: FMMS 211500Z 21014KT 9999 SCT017 SCT040 BKN250 26/23 Q1016

Laikas: 01:35 (22:35 UTC)

Prognozė

Ataskaita buvo paskelbta 5 valandos ir 35 minutes, ne 17:00 UTC
Prognozė galioja nuo 21 metu 18 UTC su 22 metu 18 UTC
Vėjas 12 kt iš Pietų/Pietvakarių
Matomumas 10 km arba daugiau
Išsisklaidę debesys ne aukštis 1700 ft
Laikinai
nuo 21 metu 18 UTC su 22 metu 18 UTC
Matomumas: 4000 m
lietus

TAF: FMMS 211700Z 2118/2218 20012KT 9999 SCT017 TEMPO 2118/2218 4000 SHRA

Orai ataskaitas ir orų prognozės (METAR, TAF).

turimą stotys yra geltonos ir raudonos taškus žemėlapyje.

Perkelti pele per norėdami pamatyti stoties vardą.

Tada spustelėkite, norėdami matyti oro stebėjimo ir prognozės.

Norėdami pakeisti žemėlapį: spustelėkite ant žalios mygtukų su juodo kryžiaus žemyn,; žalią mygtuką su brūkšneliu, jei norite nutolinti; arba žalių rodyklių gretimoms žemėlapius.


METAR-TAF: